sensor_id;sensor_type;location;lat;lon;timestamp;P1;durP1;ratioP1;P2;durP2;ratioP2
52962;SDS011;38827;53.024;6.596;2022-12-07T00:01:05;11.05;;;2.40;;
52962;SDS011;38827;53.024;6.596;2022-12-07T00:03:31;12.88;;;1.98;;
52962;SDS011;38827;53.024;6.596;2022-12-07T00:05:57;7.47;;;1.92;;
52962;SDS011;38827;53.024;6.596;2022-12-07T00:08:23;8.27;;;1.90;;
52962;SDS011;38827;53.024;6.596;2022-12-07T00:10:49;12.27;;;2.00;;
52962;SDS011;38827;53.024;6.596;2022-12-07T00:13:15;11.68;;;2.03;;
52962;SDS011;38827;53.024;6.596;2022-12-07T00:15:40;12.50;;;1.80;;
52962;SDS011;38827;53.024;6.596;2022-12-07T00:18:06;13.05;;;2.00;;
52962;SDS011;38827;53.024;6.596;2022-12-07T00:20:32;10.65;;;1.80;;
52962;SDS011;38827;53.024;6.596;2022-12-07T00:22:58;11.88;;;1.73;;
52962;SDS011;38827;53.024;6.596;2022-12-07T00:25:24;6.93;;;2.83;;
52962;SDS011;38827;53.024;6.596;2022-12-07T00:27:58;9.45;;;1.85;;
52962;SDS011;38827;53.024;6.596;2022-12-07T00:30:23;13.48;;;2.13;;
52962;SDS011;38827;53.024;6.596;2022-12-07T00:32:49;12.25;;;1.95;;
52962;SDS011;38827;53.024;6.596;2022-12-07T00:35:15;15.00;;;2.17;;
52962;SDS011;38827;53.024;6.596;2022-12-07T00:37:43;10.57;;;1.83;;
52962;SDS011;38827;53.024;6.596;2022-12-07T00:40:09;9.60;;;2.78;;
52962;SDS011;38827;53.024;6.596;2022-12-07T00:42:41;12.60;;;2.05;;
52962;SDS011;38827;53.024;6.596;2022-12-07T00:45:07;11.50;;;2.28;;
52962;SDS011;38827;53.024;6.596;2022-12-07T00:47:33;11.33;;;1.87;;
52962;SDS011;38827;53.024;6.596;2022-12-07T00:50:02;10.40;;;2.35;;
52962;SDS011;38827;53.024;6.596;2022-12-07T00:52:27;8.68;;;1.90;;
52962;SDS011;38827;53.024;6.596;2022-12-07T00:54:56;12.15;;;1.88;;
52962;SDS011;38827;53.024;6.596;2022-12-07T00:57:21;9.35;;;1.83;;
52962;SDS011;38827;53.024;6.596;2022-12-07T00:59:47;10.23;;;2.08;;
52962;SDS011;38827;53.024;6.596;2022-12-07T01:02:13;11.00;;;1.58;;
52962;SDS011;38827;53.024;6.596;2022-12-07T01:04:39;10.13;;;1.95;;
52962;SDS011;38827;53.024;6.596;2022-12-07T01:07:04;9.02;;;1.60;;
52962;SDS011;38827;53.024;6.596;2022-12-07T01:09:30;10.23;;;1.77;;
52962;SDS011;38827;53.024;6.596;2022-12-07T01:11:56;12.82;;;2.08;;
52962;SDS011;38827;53.024;6.596;2022-12-07T01:14:21;12.05;;;1.80;;
52962;SDS011;38827;53.024;6.596;2022-12-07T01:16:47;8.95;;;1.63;;
52962;SDS011;38827;53.024;6.596;2022-12-07T01:19:12;11.52;;;1.60;;
52962;SDS011;38827;53.024;6.596;2022-12-07T01:21:38;8.85;;;1.63;;
52962;SDS011;38827;53.024;6.596;2022-12-07T01:24:05;8.50;;;1.27;;
52962;SDS011;38827;53.024;6.596;2022-12-07T01:26:32;9.43;;;1.67;;
52962;SDS011;38827;53.024;6.596;2022-12-07T01:28:58;11.15;;;2.00;;
52962;SDS011;38827;53.024;6.596;2022-12-07T01:31:26;10.07;;;1.58;;
52962;SDS011;38827;53.024;6.596;2022-12-07T01:33:54;7.97;;;1.00;;
52962;SDS011;38827;53.024;6.596;2022-12-07T01:36:25;7.05;;;1.20;;
52962;SDS011;38827;53.024;6.596;2022-12-07T01:38:57;7.80;;;1.20;;
52962;SDS011;38827;53.024;6.596;2022-12-07T01:41:26;7.55;;;1.20;;
52962;SDS011;38827;53.024;6.596;2022-12-07T01:44:09;6.60;;;1.40;;
52962;SDS011;38827;53.024;6.596;2022-12-07T01:47:04;8.50;;;1.23;;
52962;SDS011;38827;53.024;6.596;2022-12-07T01:49:31;9.90;;;2.15;;
52962;SDS011;38827;53.024;6.596;2022-12-07T01:52:37;9.02;;;1.67;;
52962;SDS011;38827;53.024;6.596;2022-12-07T01:55:03;11.15;;;1.40;;
52962;SDS011;38827;53.024;6.596;2022-12-07T01:57:32;8.57;;;1.13;;
52962;SDS011;38827;53.024;6.596;2022-12-07T01:59:59;7.88;;;1.35;;
52962;SDS011;38827;53.024;6.596;2022-12-07T02:02:26;7.72;;;1.23;;
52962;SDS011;38827;53.024;6.596;2022-12-07T02:04:58;9.30;;;1.60;;
52962;SDS011;38827;53.024;6.596;2022-12-07T02:07:30;7.18;;;1.20;;
52962;SDS011;38827;53.024;6.596;2022-12-07T02:09:57;8.30;;;1.40;;
52962;SDS011;38827;53.024;6.596;2022-12-07T02:12:36;8.15;;;1.45;;
52962;SDS011;38827;53.024;6.596;2022-12-07T02:15:02;10.13;;;1.48;;
52962;SDS011;38827;53.024;6.596;2022-12-07T02:17:30;11.43;;;1.43;;
52962;SDS011;38827;53.024;6.596;2022-12-07T02:27:57;13.13;;;1.48;;
52962;SDS011;38827;53.024;6.596;2022-12-07T02:30:33;11.75;;;1.15;;
52962;SDS011;38827;53.024;6.596;2022-12-07T02:33:07;6.28;;;1.40;;
52962;SDS011;38827;53.024;6.596;2022-12-07T02:38:25;13.52;;;1.80;;
52962;SDS011;38827;53.024;6.596;2022-12-07T02:41:20;10.75;;;1.60;;
52962;SDS011;38827;53.024;6.596;2022-12-07T02:43:53;9.82;;;2.28;;
52962;SDS011;38827;53.024;6.596;2022-12-07T02:46:25;10.82;;;1.40;;
52962;SDS011;38827;53.024;6.596;2022-12-07T02:48:57;16.33;;;2.40;;
52962;SDS011;38827;53.024;6.596;2022-12-07T03:11:48;9.23;;;1.25;;
52962;SDS011;38827;53.024;6.596;2022-12-07T03:18:25;8.32;;;1.30;;
52962;SDS011;38827;53.024;6.596;2022-12-07T03:21:11;10.32;;;1.55;;
52962;SDS011;38827;53.024;6.596;2022-12-07T03:23:55;9.70;;;1.20;;
52962;SDS011;38827;53.024;6.596;2022-12-07T03:26:47;6.97;;;1.00;;
52962;SDS011;38827;53.024;6.596;2022-12-07T03:32:24;8.23;;;1.00;;
52962;SDS011;38827;53.024;6.596;2022-12-07T03:35:21;11.15;;;1.13;;
52962;SDS011;38827;53.024;6.596;2022-12-07T03:38:16;8.77;;;1.50;;
52962;SDS011;38827;53.024;6.596;2022-12-07T03:40:52;9.23;;;1.20;;
52962;SDS011;38827;53.024;6.596;2022-12-07T03:43:20;8.00;;;1.25;;
52962;SDS011;38827;53.024;6.596;2022-12-07T03:46:20;10.63;;;1.30;;
52962;SDS011;38827;53.024;6.596;2022-12-07T03:52:33;9.45;;;1.92;;
52962;SDS011;38827;53.024;6.596;2022-12-07T03:55:11;9.40;;;1.33;;
52962;SDS011;38827;53.024;6.596;2022-12-07T03:57:41;6.32;;;1.27;;
52962;SDS011;38827;53.024;6.596;2022-12-07T04:00:09;11.50;;;1.65;;
52962;SDS011;38827;53.024;6.596;2022-12-07T04:02:38;13.43;;;1.52;;
52962;SDS011;38827;53.024;6.596;2022-12-07T04:07:58;9.40;;;1.45;;
52962;SDS011;38827;53.024;6.596;2022-12-07T04:10:23;6.28;;;1.10;;
52962;SDS011;38827;53.024;6.596;2022-12-07T04:12:49;9.32;;;1.40;;
52962;SDS011;38827;53.024;6.596;2022-12-07T04:15:15;7.32;;;1.65;;
52962;SDS011;38827;53.024;6.596;2022-12-07T04:17:40;9.98;;;1.48;;
52962;SDS011;38827;53.024;6.596;2022-12-07T04:20:06;9.95;;;1.13;;
52962;SDS011;38827;53.024;6.596;2022-12-07T04:22:32;12.35;;;1.15;;
52962;SDS011;38827;53.024;6.596;2022-12-07T04:24:58;9.07;;;1.10;;
52962;SDS011;38827;53.024;6.596;2022-12-07T04:27:24;10.13;;;1.42;;
52962;SDS011;38827;53.024;6.596;2022-12-07T04:29:49;7.65;;;1.13;;
52962;SDS011;38827;53.024;6.596;2022-12-07T04:32:15;13.90;;;1.77;;
52962;SDS011;38827;53.024;6.596;2022-12-07T04:34:41;8.60;;;1.05;;
52962;SDS011;38827;53.024;6.596;2022-12-07T04:37:06;8.90;;;1.38;;
52962;SDS011;38827;53.024;6.596;2022-12-07T04:39:33;10.50;;;1.20;;
52962;SDS011;38827;53.024;6.596;2022-12-07T04:41:59;9.05;;;1.40;;
52962;SDS011;38827;53.024;6.596;2022-12-07T04:44:26;13.25;;;2.15;;
52962;SDS011;38827;53.024;6.596;2022-12-07T04:46:54;7.57;;;1.30;;
52962;SDS011;38827;53.024;6.596;2022-12-07T04:49:20;7.60;;;1.00;;
52962;SDS011;38827;53.024;6.596;2022-12-07T04:51:46;11.43;;;1.42;;
52962;SDS011;38827;53.024;6.596;2022-12-07T04:54:13;15.70;;;1.60;;
52962;SDS011;38827;53.024;6.596;2022-12-07T04:59:07;11.68;;;1.70;;
52962;SDS011;38827;53.024;6.596;2022-12-07T05:02:16;5.47;;;1.15;;
52962;SDS011;38827;53.024;6.596;2022-12-07T05:04:35;11.45;;;1.20;;
52962;SDS011;38827;53.024;6.596;2022-12-07T05:07:00;11.80;;;1.50;;
52962;SDS011;38827;53.024;6.596;2022-12-07T05:12:17;12.35;;;1.45;;
52962;SDS011;38827;53.024;6.596;2022-12-07T05:14:42;10.30;;;1.35;;
52962;SDS011;38827;53.024;6.596;2022-12-07T05:17:16;9.80;;;1.35;;
52962;SDS011;38827;53.024;6.596;2022-12-07T05:19:51;7.63;;;1.45;;
52962;SDS011;38827;53.024;6.596;2022-12-07T05:22:17;11.02;;;1.20;;
52962;SDS011;38827;53.024;6.596;2022-12-07T05:24:55;9.98;;;1.20;;
52962;SDS011;38827;53.024;6.596;2022-12-07T05:27:20;13.98;;;2.00;;
52962;SDS011;38827;53.024;6.596;2022-12-07T05:29:46;13.25;;;1.60;;
52962;SDS011;38827;53.024;6.596;2022-12-07T05:32:12;10.05;;;1.33;;
52962;SDS011;38827;53.024;6.596;2022-12-07T05:40:50;11.82;;;1.40;;
52962;SDS011;38827;53.024;6.596;2022-12-07T05:46:46;7.57;;;1.65;;
52962;SDS011;38827;53.024;6.596;2022-12-07T05:49:28;6.95;;;1.15;;
52962;SDS011;38827;53.024;6.596;2022-12-07T05:52:07;7.55;;;1.25;;
52962;SDS011;38827;53.024;6.596;2022-12-07T05:54:42;15.20;;;1.90;;
52962;SDS011;38827;53.024;6.596;2022-12-07T05:57:26;10.35;;;1.10;;
52962;SDS011;38827;53.024;6.596;2022-12-07T05:59:52;12.65;;;1.55;;
52962;SDS011;38827;53.024;6.596;2022-12-07T06:02:18;11.38;;;1.17;;
52962;SDS011;38827;53.024;6.596;2022-12-07T06:04:47;9.55;;;1.40;;
52962;SDS011;38827;53.024;6.596;2022-12-07T06:07:18;13.13;;;1.40;;
52962;SDS011;38827;53.024;6.596;2022-12-07T06:09:44;15.75;;;1.80;;
52962;SDS011;38827;53.024;6.596;2022-12-07T06:12:11;11.90;;;1.52;;
52962;SDS011;38827;53.024;6.596;2022-12-07T06:14:56;8.60;;;1.73;;
52962;SDS011;38827;53.024;6.596;2022-12-07T06:17:35;12.38;;;1.88;;
52962;SDS011;38827;53.024;6.596;2022-12-07T06:20:02;11.50;;;1.90;;
52962;SDS011;38827;53.024;6.596;2022-12-07T06:22:28;13.10;;;1.55;;
52962;SDS011;38827;53.024;6.596;2022-12-07T06:24:54;10.05;;;1.70;;
52962;SDS011;38827;53.024;6.596;2022-12-07T06:27:20;10.25;;;1.92;;
52962;SDS011;38827;53.024;6.596;2022-12-07T06:29:45;12.02;;;1.77;;
52962;SDS011;38827;53.024;6.596;2022-12-07T06:32:11;10.98;;;1.60;;
52962;SDS011;38827;53.024;6.596;2022-12-07T06:34:37;13.02;;;1.63;;
52962;SDS011;38827;53.024;6.596;2022-12-07T06:39:29;16.37;;;1.77;;
52962;SDS011;38827;53.024;6.596;2022-12-07T06:41:58;13.70;;;1.45;;
52962;SDS011;38827;53.024;6.596;2022-12-07T06:44:24;11.25;;;1.58;;
52962;SDS011;38827;53.024;6.596;2022-12-07T06:46:51;18.10;;;2.47;;
52962;SDS011;38827;53.024;6.596;2022-12-07T06:49:17;11.43;;;1.60;;
52962;SDS011;38827;53.024;6.596;2022-12-07T06:52:26;6.13;;;1.15;;
52962;SDS011;38827;53.024;6.596;2022-12-07T06:54:52;10.88;;;1.70;;
52962;SDS011;38827;53.024;6.596;2022-12-07T06:57:32;11.48;;;1.65;;
52962;SDS011;38827;53.024;6.596;2022-12-07T07:00:48;11.95;;;1.52;;
52962;SDS011;38827;53.024;6.596;2022-12-07T07:03:15;10.80;;;1.50;;
52962;SDS011;38827;53.024;6.596;2022-12-07T07:05:44;9.57;;;1.83;;
52962;SDS011;38827;53.024;6.596;2022-12-07T07:08:11;6.75;;;1.00;;
52962;SDS011;38827;53.024;6.596;2022-12-07T07:10:40;8.80;;;1.45;;
52962;SDS011;38827;53.024;6.596;2022-12-07T07:23:44;10.18;;;1.30;;
52962;SDS011;38827;53.024;6.596;2022-12-07T07:29:51;9.57;;;1.35;;
52962;SDS011;38827;53.024;6.596;2022-12-07T07:32:25;9.25;;;1.73;;
52962;SDS011;38827;53.024;6.596;2022-12-07T07:38:12;9.27;;;1.25;;
52962;SDS011;38827;53.024;6.596;2022-12-07T07:40:38;5.80;;;1.38;;
52962;SDS011;38827;53.024;6.596;2022-12-07T07:43:04;6.38;;;1.10;;
52962;SDS011;38827;53.024;6.596;2022-12-07T07:45:30;7.00;;;1.20;;
52962;SDS011;38827;53.024;6.596;2022-12-07T07:48:20;7.53;;;1.63;;
52962;SDS011;38827;53.024;6.596;2022-12-07T07:51:06;13.15;;;1.73;;
52962;SDS011;38827;53.024;6.596;2022-12-07T07:53:32;10.57;;;3.00;;
52962;SDS011;38827;53.024;6.596;2022-12-07T07:56:01;11.02;;;1.60;;
52962;SDS011;38827;53.024;6.596;2022-12-07T07:58:35;6.30;;;1.35;;
52962;SDS011;38827;53.024;6.596;2022-12-07T08:01:04;11.15;;;1.95;;
52962;SDS011;38827;53.024;6.596;2022-12-07T08:03:31;13.25;;;1.65;;
52962;SDS011;38827;53.024;6.596;2022-12-07T08:05:57;8.15;;;1.38;;
52962;SDS011;38827;53.024;6.596;2022-12-07T08:08:22;8.35;;;1.80;;
52962;SDS011;38827;53.024;6.596;2022-12-07T08:10:48;8.43;;;1.58;;
52962;SDS011;38827;53.024;6.596;2022-12-07T08:13:16;8.65;;;1.70;;
52962;SDS011;38827;53.024;6.596;2022-12-07T08:15:43;5.47;;;1.60;;
52962;SDS011;38827;53.024;6.596;2022-12-07T08:18:10;7.65;;;1.70;;
52962;SDS011;38827;53.024;6.596;2022-12-07T08:20:37;7.68;;;1.42;;
52962;SDS011;38827;53.024;6.596;2022-12-07T08:23:03;9.82;;;1.80;;
52962;SDS011;38827;53.024;6.596;2022-12-07T08:25:30;7.47;;;2.08;;
52962;SDS011;38827;53.024;6.596;2022-12-07T08:27:57;5.03;;;1.70;;
52962;SDS011;38827;53.024;6.596;2022-12-07T08:30:23;10.07;;;1.75;;
52962;SDS011;38827;53.024;6.596;2022-12-07T08:32:59;7.55;;;1.80;;
52962;SDS011;38827;53.024;6.596;2022-12-07T08:36:12;4.97;;;1.42;;
52962;SDS011;38827;53.024;6.596;2022-12-07T08:38:38;4.22;;;1.33;;
52962;SDS011;38827;53.024;6.596;2022-12-07T08:41:05;9.52;;;2.13;;
52962;SDS011;38827;53.024;6.596;2022-12-07T08:43:31;7.03;;;1.70;;
52962;SDS011;38827;53.024;6.596;2022-12-07T08:52:07;7.78;;;1.98;;
52962;SDS011;38827;53.024;6.596;2022-12-07T08:54:42;7.90;;;1.50;;
52962;SDS011;38827;53.024;6.596;2022-12-07T08:57:34;6.90;;;1.67;;
52962;SDS011;38827;53.024;6.596;2022-12-07T09:00:29;6.47;;;1.65;;
52962;SDS011;38827;53.024;6.596;2022-12-07T09:03:20;7.97;;;2.30;;
52962;SDS011;38827;53.024;6.596;2022-12-07T09:06:09;8.88;;;1.58;;
52962;SDS011;38827;53.024;6.596;2022-12-07T09:09:10;8.95;;;1.67;;
52962;SDS011;38827;53.024;6.596;2022-12-07T09:11:48;8.18;;;2.03;;
52962;SDS011;38827;53.024;6.596;2022-12-07T09:14:16;8.02;;;1.77;;
52962;SDS011;38827;53.024;6.596;2022-12-07T09:16:44;5.78;;;1.55;;
52962;SDS011;38827;53.024;6.596;2022-12-07T09:19:16;8.43;;;1.65;;
52962;SDS011;38827;53.024;6.596;2022-12-07T09:21:42;7.63;;;1.70;;
52962;SDS011;38827;53.024;6.596;2022-12-07T09:24:23;8.55;;;1.52;;
52962;SDS011;38827;53.024;6.596;2022-12-07T09:26:49;10.85;;;1.50;;
52962;SDS011;38827;53.024;6.596;2022-12-07T09:29:24;15.00;;;2.28;;
52962;SDS011;38827;53.024;6.596;2022-12-07T09:32:10;7.65;;;1.70;;
52962;SDS011;38827;53.024;6.596;2022-12-07T09:34:36;7.57;;;1.60;;
52962;SDS011;38827;53.024;6.596;2022-12-07T09:37:09;7.10;;;1.60;;
52962;SDS011;38827;53.024;6.596;2022-12-07T09:39:38;7.00;;;1.80;;
52962;SDS011;38827;53.024;6.596;2022-12-07T09:42:04;9.90;;;1.63;;
52962;SDS011;38827;53.024;6.596;2022-12-07T09:44:58;6.05;;;1.40;;
52962;SDS011;38827;53.024;6.596;2022-12-07T09:47:25;8.27;;;2.20;;
52962;SDS011;38827;53.024;6.596;2022-12-07T09:50:26;6.85;;;1.65;;
52962;SDS011;38827;53.024;6.596;2022-12-07T09:53:08;11.93;;;1.80;;
52962;SDS011;38827;53.024;6.596;2022-12-07T09:56:00;4.65;;;1.50;;
52962;SDS011;38827;53.024;6.596;2022-12-07T09:58:28;5.85;;;1.45;;
52962;SDS011;38827;53.024;6.596;2022-12-07T10:07:21;8.48;;;1.95;;
52962;SDS011;38827;53.024;6.596;2022-12-07T10:18:58;5.38;;;1.27;;
52962;SDS011;38827;53.024;6.596;2022-12-07T10:22:09;6.35;;;1.25;;
52962;SDS011;38827;53.024;6.596;2022-12-07T10:24:41;9.27;;;1.92;;
52962;SDS011;38827;53.024;6.596;2022-12-07T10:27:21;7.43;;;1.40;;
52962;SDS011;38827;53.024;6.596;2022-12-07T10:29:54;6.28;;;1.35;;
52962;SDS011;38827;53.024;6.596;2022-12-07T10:32:31;6.55;;;1.60;;
52962;SDS011;38827;53.024;6.596;2022-12-07T11:07:49;7.60;;;1.70;;
52962;SDS011;38827;53.024;6.596;2022-12-07T11:31:22;8.55;;;1.45;;
52962;SDS011;38827;53.024;6.596;2022-12-07T11:36:40;6.05;;;1.77;;
52962;SDS011;38827;53.024;6.596;2022-12-07T11:39:16;2.90;;;0.70;;
52962;SDS011;38827;53.024;6.596;2022-12-07T11:41:47;4.10;;;0.80;;
52962;SDS011;38827;53.024;6.596;2022-12-07T11:44:26;3.58;;;0.90;;
52962;SDS011;38827;53.024;6.596;2022-12-07T11:52:45;7.28;;;1.00;;
52962;SDS011;38827;53.024;6.596;2022-12-07T11:55:35;4.30;;;0.80;;
52962;SDS011;38827;53.024;6.596;2022-12-07T11:58:22;3.33;;;0.68;;
52962;SDS011;38827;53.024;6.596;2022-12-07T12:06:25;6.38;;;1.20;;
52962;SDS011;38827;53.024;6.596;2022-12-07T12:08:55;4.80;;;1.17;;
52962;SDS011;38827;53.024;6.596;2022-12-07T12:26:48;12.50;;;2.85;;
52962;SDS011;38827;53.024;6.596;2022-12-07T12:29:40;9.35;;;1.52;;
52962;SDS011;38827;53.024;6.596;2022-12-07T12:45:19;7.38;;;1.65;;
52962;SDS011;38827;53.024;6.596;2022-12-07T12:55:25;7.80;;;1.58;;
52962;SDS011;38827;53.024;6.596;2022-12-07T13:29:25;2.85;;;0.80;;
52962;SDS011;38827;53.024;6.596;2022-12-07T13:31:57;3.38;;;0.60;;
52962;SDS011;38827;53.024;6.596;2022-12-07T13:40:01;2.40;;;0.47;;
52962;SDS011;38827;53.024;6.596;2022-12-07T13:43:00;0.60;;;0.40;;
52962;SDS011;38827;53.024;6.596;2022-12-07T13:45:28;5.18;;;1.00;;
52962;SDS011;38827;53.024;6.596;2022-12-07T13:50:52;2.88;;;0.50;;
52962;SDS011;38827;53.024;6.596;2022-12-07T13:53:22;5.57;;;0.70;;
52962;SDS011;38827;53.024;6.596;2022-12-07T13:55:48;1.88;;;0.63;;
52962;SDS011;38827;53.024;6.596;2022-12-07T13:58:14;1.27;;;0.55;;
52962;SDS011;38827;53.024;6.596;2022-12-07T14:00:41;5.00;;;1.10;;
52962;SDS011;38827;53.024;6.596;2022-12-07T14:05:39;2.55;;;0.90;;
52962;SDS011;38827;53.024;6.596;2022-12-07T14:10:39;4.47;;;0.70;;
52962;SDS011;38827;53.024;6.596;2022-12-07T14:13:26;3.63;;;0.80;;
52962;SDS011;38827;53.024;6.596;2022-12-07T14:16:22;4.78;;;0.80;;
52962;SDS011;38827;53.024;6.596;2022-12-07T14:18:49;1.67;;;0.60;;
52962;SDS011;38827;53.024;6.596;2022-12-07T14:21:16;6.63;;;0.90;;
52962;SDS011;38827;53.024;6.596;2022-12-07T14:23:45;3.55;;;1.10;;
52962;SDS011;38827;53.024;6.596;2022-12-07T14:26:32;4.22;;;0.90;;
52962;SDS011;38827;53.024;6.596;2022-12-07T14:31:47;3.80;;;1.10;;
52962;SDS011;38827;53.024;6.596;2022-12-07T14:34:13;2.28;;;0.88;;
52962;SDS011;38827;53.024;6.596;2022-12-07T14:36:39;5.35;;;1.20;;
52962;SDS011;38827;53.024;6.596;2022-12-07T14:39:04;1.83;;;1.05;;
52962;SDS011;38827;53.024;6.596;2022-12-07T14:41:30;4.57;;;0.93;;
52962;SDS011;38827;53.024;6.596;2022-12-07T14:44:14;7.90;;;1.40;;
52962;SDS011;38827;53.024;6.596;2022-12-07T14:46:40;7.57;;;1.63;;
52962;SDS011;38827;53.024;6.596;2022-12-07T14:49:06;6.40;;;1.20;;
52962;SDS011;38827;53.024;6.596;2022-12-07T14:51:31;4.97;;;1.10;;
52962;SDS011;38827;53.024;6.596;2022-12-07T14:53:58;8.57;;;2.45;;
52962;SDS011;38827;53.024;6.596;2022-12-07T14:56:24;9.43;;;2.50;;
52962;SDS011;38827;53.024;6.596;2022-12-07T14:58:50;4.78;;;1.95;;
52962;SDS011;38827;53.024;6.596;2022-12-07T15:01:16;5.50;;;1.10;;
52962;SDS011;38827;53.024;6.596;2022-12-07T15:03:41;6.35;;;1.13;;
52962;SDS011;38827;53.024;6.596;2022-12-07T15:06:14;6.97;;;1.10;;
52962;SDS011;38827;53.024;6.596;2022-12-07T15:08:41;4.97;;;1.35;;
52962;SDS011;38827;53.024;6.596;2022-12-07T15:11:13;4.40;;;1.10;;
52962;SDS011;38827;53.024;6.596;2022-12-07T15:13:40;3.13;;;1.30;;
52962;SDS011;38827;53.024;6.596;2022-12-07T15:16:24;6.90;;;1.27;;
52962;SDS011;38827;53.024;6.596;2022-12-07T15:18:50;5.32;;;0.98;;
52962;SDS011;38827;53.024;6.596;2022-12-07T15:21:16;4.38;;;1.00;;
52962;SDS011;38827;53.024;6.596;2022-12-07T15:23:42;3.90;;;1.17;;
52962;SDS011;38827;53.024;6.596;2022-12-07T15:26:09;5.95;;;1.00;;
52962;SDS011;38827;53.024;6.596;2022-12-07T15:28:35;5.30;;;1.08;;
52962;SDS011;38827;53.024;6.596;2022-12-07T15:31:01;5.90;;;1.17;;
52962;SDS011;38827;53.024;6.596;2022-12-07T15:33:27;4.88;;;0.88;;
52962;SDS011;38827;53.024;6.596;2022-12-07T15:35:52;6.15;;;1.25;;
52962;SDS011;38827;53.024;6.596;2022-12-07T15:38:18;5.43;;;1.25;;
52962;SDS011;38827;53.024;6.596;2022-12-07T15:40:47;4.22;;;1.60;;
52962;SDS011;38827;53.024;6.596;2022-12-07T15:43:15;6.20;;;1.60;;
52962;SDS011;38827;53.024;6.596;2022-12-07T15:45:59;6.57;;;1.60;;
52962;SDS011;38827;53.024;6.596;2022-12-07T15:48:25;4.75;;;1.77;;
52962;SDS011;38827;53.024;6.596;2022-12-07T15:50:51;7.75;;;2.55;;
52962;SDS011;38827;53.024;6.596;2022-12-07T15:53:16;7.72;;;2.40;;
52962;SDS011;38827;53.024;6.596;2022-12-07T15:55:42;5.70;;;2.10;;
52962;SDS011;38827;53.024;6.596;2022-12-07T15:58:08;5.15;;;1.90;;
52962;SDS011;38827;53.024;6.596;2022-12-07T16:00:33;13.93;;;4.40;;
52962;SDS011;38827;53.024;6.596;2022-12-07T16:02:59;9.45;;;2.92;;
52962;SDS011;38827;53.024;6.596;2022-12-07T16:05:25;6.53;;;2.28;;
52962;SDS011;38827;53.024;6.596;2022-12-07T16:07:53;6.57;;;2.17;;
52962;SDS011;38827;53.024;6.596;2022-12-07T16:10:19;4.28;;;1.90;;
52962;SDS011;38827;53.024;6.596;2022-12-07T16:12:45;7.43;;;2.13;;
52962;SDS011;38827;53.024;6.596;2022-12-07T16:15:10;7.35;;;1.98;;
52962;SDS011;38827;53.024;6.596;2022-12-07T16:17:36;4.50;;;1.80;;
52962;SDS011;38827;53.024;6.596;2022-12-07T16:20:02;7.00;;;1.70;;
52962;SDS011;38827;53.024;6.596;2022-12-07T16:22:29;7.47;;;1.90;;
52962;SDS011;38827;53.024;6.596;2022-12-07T16:24:56;4.72;;;1.45;;
52962;SDS011;38827;53.024;6.596;2022-12-07T16:27:21;6.63;;;1.85;;
52962;SDS011;38827;53.024;6.596;2022-12-07T16:33:00;7.70;;;1.75;;
52962;SDS011;38827;53.024;6.596;2022-12-07T16:35:26;4.22;;;1.30;;
52962;SDS011;38827;53.024;6.596;2022-12-07T16:37:52;3.75;;;1.10;;
52962;SDS011;38827;53.024;6.596;2022-12-07T16:40:27;7.00;;;1.20;;
52962;SDS011;38827;53.024;6.596;2022-12-07T16:42:52;4.40;;;1.40;;
52962;SDS011;38827;53.024;6.596;2022-12-07T16:45:24;5.55;;;1.60;;
52962;SDS011;38827;53.024;6.596;2022-12-07T16:47:50;5.82;;;1.70;;
52962;SDS011;38827;53.024;6.596;2022-12-07T16:50:16;6.90;;;1.75;;
52962;SDS011;38827;53.024;6.596;2022-12-07T16:52:42;5.50;;;1.30;;
52962;SDS011;38827;53.024;6.596;2022-12-07T16:55:08;5.20;;;1.70;;
52962;SDS011;38827;53.024;6.596;2022-12-07T16:57:34;6.13;;;1.65;;
52962;SDS011;38827;53.024;6.596;2022-12-07T16:59:59;4.00;;;1.42;;
52962;SDS011;38827;53.024;6.596;2022-12-07T17:02:25;4.93;;;2.28;;
52962;SDS011;38827;53.024;6.596;2022-12-07T17:04:51;7.68;;;2.60;;
52962;SDS011;38827;53.024;6.596;2022-12-07T17:07:17;5.10;;;2.10;;
52962;SDS011;38827;53.024;6.596;2022-12-07T17:09:42;4.75;;;2.00;;
52962;SDS011;38827;53.024;6.596;2022-12-07T17:12:08;6.00;;;2.10;;
52962;SDS011;38827;53.024;6.596;2022-12-07T17:14:33;8.15;;;2.10;;
52962;SDS011;38827;53.024;6.596;2022-12-07T17:17:18;3.65;;;1.25;;
52962;SDS011;38827;53.024;6.596;2022-12-07T17:19:44;2.42;;;0.70;;
52962;SDS011;38827;53.024;6.596;2022-12-07T17:22:10;2.50;;;1.40;;
52962;SDS011;38827;53.024;6.596;2022-12-07T17:24:37;5.13;;;1.55;;
52962;SDS011;38827;53.024;6.596;2022-12-07T17:27:03;4.38;;;1.20;;
52962;SDS011;38827;53.024;6.596;2022-12-07T17:29:29;5.50;;;1.60;;
52962;SDS011;38827;53.024;6.596;2022-12-07T17:31:55;6.70;;;2.22;;
52962;SDS011;38827;53.024;6.596;2022-12-07T17:34:20;4.13;;;1.80;;
52962;SDS011;38827;53.024;6.596;2022-12-07T17:36:46;6.40;;;2.83;;
52962;SDS011;38827;53.024;6.596;2022-12-07T17:39:13;9.18;;;3.35;;
52962;SDS011;38827;53.024;6.596;2022-12-07T17:41:41;9.20;;;3.38;;
52962;SDS011;38827;53.024;6.596;2022-12-07T17:44:26;11.88;;;6.32;;
52962;SDS011;38827;53.024;6.596;2022-12-07T17:46:52;6.88;;;2.90;;
52962;SDS011;38827;53.024;6.596;2022-12-07T17:49:26;6.75;;;2.60;;
52962;SDS011;38827;53.024;6.596;2022-12-07T17:51:52;5.13;;;2.50;;
52962;SDS011;38827;53.024;6.596;2022-12-07T17:54:37;6.45;;;2.28;;
52962;SDS011;38827;53.024;6.596;2022-12-07T17:57:02;3.45;;;1.95;;
52962;SDS011;38827;53.024;6.596;2022-12-07T17:59:28;6.07;;;2.72;;
52962;SDS011;38827;53.024;6.596;2022-12-07T18:01:54;5.40;;;2.17;;
52962;SDS011;38827;53.024;6.596;2022-12-07T18:04:19;5.18;;;2.20;;
52962;SDS011;38827;53.024;6.596;2022-12-07T18:06:45;5.53;;;2.50;;
52962;SDS011;38827;53.024;6.596;2022-12-07T18:09:13;6.10;;;2.30;;
52962;SDS011;38827;53.024;6.596;2022-12-07T18:11:38;7.97;;;2.47;;
52962;SDS011;38827;53.024;6.596;2022-12-07T18:14:04;4.85;;;1.95;;
52962;SDS011;38827;53.024;6.596;2022-12-07T18:16:31;6.30;;;2.97;;
52962;SDS011;38827;53.024;6.596;2022-12-07T18:19:00;3.95;;;2.38;;
52962;SDS011;38827;53.024;6.596;2022-12-07T18:21:33;5.25;;;2.10;;
52962;SDS011;38827;53.024;6.596;2022-12-07T18:24:26;6.32;;;2.15;;
52962;SDS011;38827;53.024;6.596;2022-12-07T18:26:55;4.28;;;1.90;;
52962;SDS011;38827;53.024;6.596;2022-12-07T18:29:24;7.15;;;2.60;;
52962;SDS011;38827;53.024;6.596;2022-12-07T18:34:31;6.70;;;1.98;;
52962;SDS011;38827;53.024;6.596;2022-12-07T18:50:35;4.53;;;2.90;;
52962;SDS011;38827;53.024;6.596;2022-12-07T18:53:15;4.95;;;2.97;;
52962;SDS011;38827;53.024;6.596;2022-12-07T18:55:41;9.02;;;2.58;;
52962;SDS011;38827;53.024;6.596;2022-12-07T18:58:52;9.50;;;3.45;;
52962;SDS011;38827;53.024;6.596;2022-12-07T19:02:08;9.55;;;3.45;;
52962;SDS011;38827;53.024;6.596;2022-12-07T19:04:45;8.00;;;3.88;;
52962;SDS011;38827;53.024;6.596;2022-12-07T19:07:11;8.13;;;4.65;;
52962;SDS011;38827;53.024;6.596;2022-12-07T19:09:36;8.20;;;4.10;;
52962;SDS011;38827;53.024;6.596;2022-12-07T19:12:02;5.47;;;3.70;;
52962;SDS011;38827;53.024;6.596;2022-12-07T19:14:33;8.15;;;4.32;;
52962;SDS011;38827;53.024;6.596;2022-12-07T19:17:03;9.10;;;5.22;;
52962;SDS011;38827;53.024;6.596;2022-12-07T19:19:34;8.75;;;4.65;;
52962;SDS011;38827;53.024;6.596;2022-12-07T19:22:02;7.85;;;4.60;;
52962;SDS011;38827;53.024;6.596;2022-12-07T19:24:31;8.05;;;4.72;;
52962;SDS011;38827;53.024;6.596;2022-12-07T19:26:57;8.63;;;4.78;;
52962;SDS011;38827;53.024;6.596;2022-12-07T19:29:23;11.63;;;5.07;;
52962;SDS011;38827;53.024;6.596;2022-12-07T19:31:49;11.15;;;5.10;;
52962;SDS011;38827;53.024;6.596;2022-12-07T19:34:17;7.38;;;4.80;;
52962;SDS011;38827;53.024;6.596;2022-12-07T19:36:49;11.98;;;6.20;;
52962;SDS011;38827;53.024;6.596;2022-12-07T19:39:15;8.40;;;4.68;;